sensor_id;sensor_type;location;lat;lon;timestamp;P1;durP1;ratioP1;P2;durP2;ratioP2
56381;SDS011;74506;51.150;4.470;2024-03-23T00:55:28;12.15;;;3.47;;
56381;SDS011;74506;51.150;4.470;2024-03-23T00:57:54;10.13;;;3.45;;
56381;SDS011;74506;51.150;4.470;2024-03-23T01:00:20;16.13;;;3.95;;
56381;SDS011;74506;51.150;4.470;2024-03-23T01:02:46;12.95;;;4.25;;
56381;SDS011;74506;51.150;4.470;2024-03-23T01:05:11;12.85;;;5.07;;
56381;SDS011;74506;51.150;4.470;2024-03-23T01:07:37;11.15;;;4.93;;
56381;SDS011;74506;51.150;4.470;2024-03-23T01:12:28;11.85;;;4.38;;
56381;SDS011;74506;51.150;4.470;2024-03-23T01:14:54;13.63;;;4.78;;
56381;SDS011;74506;51.150;4.470;2024-03-23T01:17:19;12.82;;;5.10;;
56381;SDS011;74506;51.150;4.470;2024-03-23T01:19:45;11.85;;;4.47;;
56381;SDS011;74506;51.150;4.470;2024-03-23T01:22:11;11.02;;;4.28;;
56381;SDS011;74506;51.150;4.470;2024-03-23T01:24:36;10.77;;;4.35;;
56381;SDS011;74506;51.150;4.470;2024-03-23T01:27:02;14.85;;;5.43;;
56381;SDS011;74506;51.150;4.470;2024-03-23T01:29:28;13.77;;;4.60;;
56381;SDS011;74506;51.150;4.470;2024-03-23T01:31:54;12.90;;;4.80;;
56381;SDS011;74506;51.150;4.470;2024-03-23T01:34:20;11.63;;;4.70;;
56381;SDS011;74506;51.150;4.470;2024-03-23T01:36:46;9.98;;;4.57;;
56381;SDS011;74506;51.150;4.470;2024-03-23T01:39:12;12.68;;;4.53;;
56381;SDS011;74506;51.150;4.470;2024-03-23T01:41:37;9.57;;;3.90;;
56381;SDS011;74506;51.150;4.470;2024-03-23T01:44:07;9.13;;;3.47;;
56381;SDS011;74506;51.150;4.470;2024-03-23T01:46:36;10.75;;;3.30;;
56381;SDS011;74506;51.150;4.470;2024-03-23T01:49:02;10.18;;;3.30;;
56381;SDS011;74506;51.150;4.470;2024-03-23T01:51:28;10.50;;;4.03;;
56381;SDS011;74506;51.150;4.470;2024-03-23T01:53:54;10.95;;;3.40;;
56381;SDS011;74506;51.150;4.470;2024-03-23T01:56:20;11.30;;;3.50;;
56381;SDS011;74506;51.150;4.470;2024-03-23T01:58:45;10.65;;;4.03;;
56381;SDS011;74506;51.150;4.470;2024-03-23T02:01:11;11.18;;;3.35;;
56381;SDS011;74506;51.150;4.470;2024-03-23T02:03:37;13.10;;;3.67;;
56381;SDS011;74506;51.150;4.470;2024-03-23T02:06:02;17.30;;;4.10;;
56381;SDS011;74506;51.150;4.470;2024-03-23T02:08:28;11.70;;;3.65;;
56381;SDS011;74506;51.150;4.470;2024-03-23T02:10:55;11.25;;;4.03;;
56381;SDS011;74506;51.150;4.470;2024-03-23T02:13:21;9.98;;;4.18;;
56381;SDS011;74506;51.150;4.470;2024-03-23T02:15:46;12.15;;;4.32;;
56381;SDS011;74506;51.150;4.470;2024-03-23T02:18:13;11.88;;;4.50;;
56381;SDS011;74506;51.150;4.470;2024-03-23T02:20:39;15.80;;;4.35;;
56381;SDS011;74506;51.150;4.470;2024-03-23T02:23:05;11.30;;;4.10;;
56381;SDS011;74506;51.150;4.470;2024-03-23T02:25:33;14.23;;;4.53;;
56381;SDS011;74506;51.150;4.470;2024-03-23T02:27:59;9.25;;;4.50;;
56381;SDS011;74506;51.150;4.470;2024-03-23T02:30:25;12.65;;;5.15;;
56381;SDS011;74506;51.150;4.470;2024-03-23T02:32:51;11.70;;;4.60;;
56381;SDS011;74506;51.150;4.470;2024-03-23T02:35:17;12.45;;;4.60;;
56381;SDS011;74506;51.150;4.470;2024-03-23T02:37:42;10.07;;;4.25;;
56381;SDS011;74506;51.150;4.470;2024-03-23T02:40:08;12.65;;;5.30;;
56381;SDS011;74506;51.150;4.470;2024-03-23T02:42:34;12.65;;;4.82;;
56381;SDS011;74506;51.150;4.470;2024-03-23T02:45:00;13.95;;;5.38;;
56381;SDS011;74506;51.150;4.470;2024-03-23T02:47:25;14.32;;;5.50;;
56381;SDS011;74506;51.150;4.470;2024-03-23T02:49:51;12.70;;;5.05;;
56381;SDS011;74506;51.150;4.470;2024-03-23T02:52:16;12.25;;;5.50;;
56381;SDS011;74506;51.150;4.470;2024-03-23T02:54:42;13.45;;;5.22;;
56381;SDS011;74506;51.150;4.470;2024-03-23T02:57:10;15.40;;;5.13;;
56381;SDS011;74506;51.150;4.470;2024-03-23T02:59:35;17.30;;;5.40;;
56381;SDS011;74506;51.150;4.470;2024-03-23T03:02:01;14.35;;;5.20;;
56381;SDS011;74506;51.150;4.470;2024-03-23T03:04:30;20.60;;;5.50;;
56381;SDS011;74506;51.150;4.470;2024-03-23T03:06:55;11.82;;;4.63;;
56381;SDS011;74506;51.150;4.470;2024-03-23T03:09:21;19.17;;;4.88;;
56381;SDS011;74506;51.150;4.470;2024-03-23T03:11:47;18.65;;;4.90;;
56381;SDS011;74506;51.150;4.470;2024-03-23T03:14:12;17.38;;;4.85;;
56381;SDS011;74506;51.150;4.470;2024-03-23T03:16:38;13.38;;;4.90;;
56381;SDS011;74506;51.150;4.470;2024-03-23T03:19:04;12.65;;;5.13;;
56381;SDS011;74506;51.150;4.470;2024-03-23T03:21:29;13.75;;;4.03;;
56381;SDS011;74506;51.150;4.470;2024-03-23T03:23:55;11.43;;;3.85;;
56381;SDS011;74506;51.150;4.470;2024-03-23T03:26:22;11.55;;;3.90;;
56381;SDS011;74506;51.150;4.470;2024-03-23T03:28:47;14.57;;;4.65;;
56381;SDS011;74506;51.150;4.470;2024-03-23T03:31:17;12.40;;;4.75;;
56381;SDS011;74506;51.150;4.470;2024-03-23T03:33:43;12.25;;;4.07;;
56381;SDS011;74506;51.150;4.470;2024-03-23T03:36:09;13.63;;;3.60;;
56381;SDS011;74506;51.150;4.470;2024-03-23T03:38:35;11.32;;;4.22;;
56381;SDS011;74506;51.150;4.470;2024-03-23T03:41:01;13.95;;;4.18;;
56381;SDS011;74506;51.150;4.470;2024-03-23T03:43:27;10.13;;;4.13;;
56381;SDS011;74506;51.150;4.470;2024-03-23T03:45:53;13.73;;;3.92;;
56381;SDS011;74506;51.150;4.470;2024-03-23T03:48:19;14.27;;;4.13;;
56381;SDS011;74506;51.150;4.470;2024-03-23T03:50:44;12.30;;;3.40;;
56381;SDS011;74506;51.150;4.470;2024-03-23T03:53:10;9.77;;;3.70;;
56381;SDS011;74506;51.150;4.470;2024-03-23T03:55:36;11.48;;;3.63;;
56381;SDS011;74506;51.150;4.470;2024-03-23T03:58:02;12.95;;;3.70;;
56381;SDS011;74506;51.150;4.470;2024-03-23T04:00:28;13.15;;;3.95;;
56381;SDS011;74506;51.150;4.470;2024-03-23T04:02:53;13.27;;;3.38;;
56381;SDS011;74506;51.150;4.470;2024-03-23T04:05:19;11.95;;;4.25;;
56381;SDS011;74506;51.150;4.470;2024-03-23T04:07:45;10.30;;;3.65;;
56381;SDS011;74506;51.150;4.470;2024-03-23T04:10:11;13.07;;;3.88;;
56381;SDS011;74506;51.150;4.470;2024-03-23T04:12:36;12.90;;;3.35;;
56381;SDS011;74506;51.150;4.470;2024-03-23T04:15:02;15.32;;;3.20;;
56381;SDS011;74506;51.150;4.470;2024-03-23T04:17:30;13.18;;;3.30;;
56381;SDS011;74506;51.150;4.470;2024-03-23T04:19:57;15.95;;;4.30;;
56381;SDS011;74506;51.150;4.470;2024-03-23T04:22:23;12.73;;;3.20;;
56381;SDS011;74506;51.150;4.470;2024-03-23T04:24:58;10.45;;;2.83;;
56381;SDS011;74506;51.150;4.470;2024-03-23T04:27:23;13.90;;;3.40;;
56381;SDS011;74506;51.150;4.470;2024-03-23T04:29:49;11.93;;;2.97;;
56381;SDS011;74506;51.150;4.470;2024-03-23T04:32:15;12.05;;;3.38;;
56381;SDS011;74506;51.150;4.470;2024-03-23T04:34:42;14.70;;;3.00;;
56381;SDS011;74506;51.150;4.470;2024-03-23T04:37:08;19.48;;;2.90;;
56381;SDS011;74506;51.150;4.470;2024-03-23T04:39:35;7.72;;;2.58;;
56381;SDS011;74506;51.150;4.470;2024-03-23T04:42:01;11.00;;;2.72;;
56381;SDS011;74506;51.150;4.470;2024-03-23T04:44:28;8.75;;;2.90;;
56381;SDS011;74506;51.150;4.470;2024-03-23T04:46:54;7.95;;;2.72;;
56381;SDS011;74506;51.150;4.470;2024-03-23T04:49:19;8.82;;;2.88;;
56381;SDS011;74506;51.150;4.470;2024-03-23T04:51:45;7.95;;;2.50;;
56381;SDS011;74506;51.150;4.470;2024-03-23T04:54:12;11.75;;;3.28;;
56381;SDS011;74506;51.150;4.470;2024-03-23T04:56:37;10.48;;;2.83;;
56381;SDS011;74506;51.150;4.470;2024-03-23T04:59:03;8.05;;;2.38;;
56381;SDS011;74506;51.150;4.470;2024-03-23T05:01:30;14.13;;;3.03;;
56381;SDS011;74506;51.150;4.470;2024-03-23T05:03:56;8.90;;;3.00;;
56381;SDS011;74506;51.150;4.470;2024-03-23T05:06:22;11.60;;;3.45;;
56381;SDS011;74506;51.150;4.470;2024-03-23T05:08:48;10.75;;;3.05;;
56381;SDS011;74506;51.150;4.470;2024-03-23T05:11:13;10.18;;;3.05;;
56381;SDS011;74506;51.150;4.470;2024-03-23T05:13:39;15.13;;;3.83;;
56381;SDS011;74506;51.150;4.470;2024-03-23T05:16:05;19.08;;;4.25;;
56381;SDS011;74506;51.150;4.470;2024-03-23T05:18:31;15.32;;;4.22;;
56381;SDS011;74506;51.150;4.470;2024-03-23T05:20:57;14.40;;;4.07;;
56381;SDS011;74506;51.150;4.470;2024-03-23T05:23:23;16.65;;;4.32;;
56381;SDS011;74506;51.150;4.470;2024-03-23T05:25:49;16.90;;;4.20;;
56381;SDS011;74506;51.150;4.470;2024-03-23T05:28:14;16.33;;;3.88;;
56381;SDS011;74506;51.150;4.470;2024-03-23T05:30:40;15.80;;;4.20;;
56381;SDS011;74506;51.150;4.470;2024-03-23T05:33:06;18.58;;;5.25;;
56381;SDS011;74506;51.150;4.470;2024-03-23T05:35:32;17.25;;;4.03;;
56381;SDS011;74506;51.150;4.470;2024-03-23T05:37:57;16.67;;;3.92;;
56381;SDS011;74506;51.150;4.470;2024-03-23T05:40:26;13.77;;;4.13;;
56381;SDS011;74506;51.150;4.470;2024-03-23T05:42:52;12.70;;;3.45;;
56381;SDS011;74506;51.150;4.470;2024-03-23T05:45:18;13.07;;;3.85;;
56381;SDS011;74506;51.150;4.470;2024-03-23T05:47:44;15.60;;;3.97;;
56381;SDS011;74506;51.150;4.470;2024-03-23T05:50:10;18.55;;;4.13;;
56381;SDS011;74506;51.150;4.470;2024-03-23T05:52:38;12.00;;;3.13;;
56381;SDS011;74506;51.150;4.470;2024-03-23T05:55:04;15.07;;;3.42;;
56381;SDS011;74506;51.150;4.470;2024-03-23T05:57:30;16.45;;;3.50;;
56381;SDS011;74506;51.150;4.470;2024-03-23T05:59:55;9.77;;;3.00;;
56381;SDS011;74506;51.150;4.470;2024-03-23T06:02:22;12.65;;;2.50;;
56381;SDS011;74506;51.150;4.470;2024-03-23T06:04:47;17.60;;;3.25;;
56381;SDS011;74506;51.150;4.470;2024-03-23T06:07:13;13.20;;;3.22;;
56381;SDS011;74506;51.150;4.470;2024-03-23T06:09:39;12.93;;;2.67;;
56381;SDS011;74506;51.150;4.470;2024-03-23T06:12:05;9.27;;;3.13;;
56381;SDS011;74506;51.150;4.470;2024-03-23T06:14:31;11.27;;;2.80;;
56381;SDS011;74506;51.150;4.470;2024-03-23T06:16:58;14.55;;;2.65;;
56381;SDS011;74506;51.150;4.470;2024-03-23T06:19:24;9.82;;;2.85;;
56381;SDS011;74506;51.150;4.470;2024-03-23T06:21:52;7.32;;;2.25;;
56381;SDS011;74506;51.150;4.470;2024-03-23T06:24:18;11.07;;;2.00;;
56381;SDS011;74506;51.150;4.470;2024-03-23T06:26:43;15.02;;;2.72;;
56381;SDS011;74506;51.150;4.470;2024-03-23T06:29:09;12.55;;;2.47;;
56381;SDS011;74506;51.150;4.470;2024-03-23T06:31:35;11.20;;;2.25;;
56381;SDS011;74506;51.150;4.470;2024-03-23T06:34:00;7.93;;;2.17;;
56381;SDS011;74506;51.150;4.470;2024-03-23T06:36:27;10.70;;;2.40;;
56381;SDS011;74506;51.150;4.470;2024-03-23T06:38:52;10.93;;;2.20;;
56381;SDS011;74506;51.150;4.470;2024-03-23T06:41:19;10.25;;;2.33;;
56381;SDS011;74506;51.150;4.470;2024-03-23T06:43:44;15.05;;;2.60;;
56381;SDS011;74506;51.150;4.470;2024-03-23T06:46:10;17.50;;;2.67;;
56381;SDS011;74506;51.150;4.470;2024-03-23T06:48:36;12.40;;;2.70;;
56381;SDS011;74506;51.150;4.470;2024-03-23T06:51:01;10.98;;;2.33;;
56381;SDS011;74506;51.150;4.470;2024-03-23T06:53:27;13.15;;;2.47;;
56381;SDS011;74506;51.150;4.470;2024-03-23T06:55:53;10.88;;;2.28;;
56381;SDS011;74506;51.150;4.470;2024-03-23T06:58:23;9.95;;;2.25;;
56381;SDS011;74506;51.150;4.470;2024-03-23T07:00:49;13.00;;;2.92;;
56381;SDS011;74506;51.150;4.470;2024-03-23T07:03:16;12.63;;;2.60;;
56381;SDS011;74506;51.150;4.470;2024-03-23T07:05:42;13.27;;;2.90;;
56381;SDS011;74506;51.150;4.470;2024-03-23T07:08:07;7.20;;;1.88;;
56381;SDS011;74506;51.150;4.470;2024-03-23T07:10:33;9.38;;;2.22;;
56381;SDS011;74506;51.150;4.470;2024-03-23T07:12:59;14.27;;;3.10;;
56381;SDS011;74506;51.150;4.470;2024-03-23T07:15:25;13.30;;;2.40;;
56381;SDS011;74506;51.150;4.470;2024-03-23T07:17:50;10.00;;;1.50;;
56381;SDS011;74506;51.150;4.470;2024-03-23T07:20:16;10.88;;;2.42;;
56381;SDS011;74506;51.150;4.470;2024-03-23T07:22:42;12.57;;;2.60;;
56381;SDS011;74506;51.150;4.470;2024-03-23T07:25:07;10.95;;;2.10;;
56381;SDS011;74506;51.150;4.470;2024-03-23T07:27:33;8.38;;;1.90;;
56381;SDS011;74506;51.150;4.470;2024-03-23T07:29:59;9.25;;;2.58;;
56381;SDS011;74506;51.150;4.470;2024-03-23T07:32:26;11.95;;;2.42;;
56381;SDS011;74506;51.150;4.470;2024-03-23T07:34:52;14.18;;;2.28;;
56381;SDS011;74506;51.150;4.470;2024-03-23T07:37:18;14.70;;;2.55;;
56381;SDS011;74506;51.150;4.470;2024-03-23T07:39:44;10.50;;;2.13;;
56381;SDS011;74506;51.150;4.470;2024-03-23T07:42:09;10.82;;;2.20;;
56381;SDS011;74506;51.150;4.470;2024-03-23T07:44:35;13.05;;;2.28;;
56381;SDS011;74506;51.150;4.470;2024-03-23T07:47:01;10.80;;;2.08;;
56381;SDS011;74506;51.150;4.470;2024-03-23T07:49:26;11.77;;;2.20;;
56381;SDS011;74506;51.150;4.470;2024-03-23T07:51:53;9.63;;;2.55;;
56381;SDS011;74506;51.150;4.470;2024-03-23T07:54:18;5.60;;;1.73;;
56381;SDS011;74506;51.150;4.470;2024-03-23T07:56:44;12.18;;;1.85;;
56381;SDS011;74506;51.150;4.470;2024-03-23T07:59:09;9.00;;;2.00;;
56381;SDS011;74506;51.150;4.470;2024-03-23T08:01:35;7.13;;;1.90;;
56381;SDS011;74506;51.150;4.470;2024-03-23T08:04:01;8.73;;;1.80;;
56381;SDS011;74506;51.150;4.470;2024-03-23T08:06:26;4.60;;;1.10;;
56381;SDS011;74506;51.150;4.470;2024-03-23T08:08:53;10.32;;;1.73;;
56381;SDS011;74506;51.150;4.470;2024-03-23T08:11:25;4.63;;;1.13;;
56381;SDS011;74506;51.150;4.470;2024-03-23T08:13:51;13.75;;;2.17;;
56381;SDS011;74506;51.150;4.470;2024-03-23T08:16:17;4.15;;;1.50;;
56381;SDS011;74506;51.150;4.470;2024-03-23T08:18:42;14.43;;;2.33;;
56381;SDS011;74506;51.150;4.470;2024-03-23T08:21:08;10.75;;;2.42;;
56381;SDS011;74506;51.150;4.470;2024-03-23T08:23:34;9.73;;;2.00;;
56381;SDS011;74506;51.150;4.470;2024-03-23T08:26:02;16.30;;;2.78;;
56381;SDS011;74506;51.150;4.470;2024-03-23T08:28:28;12.23;;;2.20;;
56381;SDS011;74506;51.150;4.470;2024-03-23T08:30:54;8.82;;;2.53;;
56381;SDS011;74506;51.150;4.470;2024-03-23T08:33:20;8.30;;;2.28;;
56381;SDS011;74506;51.150;4.470;2024-03-23T08:35:53;3.47;;;1.42;;
56381;SDS011;74506;51.150;4.470;2024-03-23T08:38:19;9.68;;;2.40;;
56381;SDS011;74506;51.150;4.470;2024-03-23T08:40:44;10.30;;;2.03;;
56381;SDS011;74506;51.150;4.470;2024-03-23T08:43:10;6.90;;;1.90;;
56381;SDS011;74506;51.150;4.470;2024-03-23T08:45:36;8.15;;;2.10;;
56381;SDS011;74506;51.150;4.470;2024-03-23T08:48:01;15.02;;;2.63;;
56381;SDS011;74506;51.150;4.470;2024-03-23T08:50:27;10.15;;;2.45;;
56381;SDS011;74506;51.150;4.470;2024-03-23T08:52:52;10.82;;;2.80;;
56381;SDS011;74506;51.150;4.470;2024-03-23T08:55:18;10.63;;;2.50;;
56381;SDS011;74506;51.150;4.470;2024-03-23T08:57:44;13.70;;;2.80;;
56381;SDS011;74506;51.150;4.470;2024-03-23T09:00:09;9.82;;;2.30;;
56381;SDS011;74506;51.150;4.470;2024-03-23T09:02:36;9.85;;;2.72;;
56381;SDS011;74506;51.150;4.470;2024-03-23T09:05:02;15.82;;;2.83;;
56381;SDS011;74506;51.150;4.470;2024-03-23T09:07:30;8.15;;;2.70;;
56381;SDS011;74506;51.150;4.470;2024-03-23T09:09:56;8.68;;;2.47;;
56381;SDS011;74506;51.150;4.470;2024-03-23T09:12:21;12.07;;;3.00;;
56381;SDS011;74506;51.150;4.470;2024-03-23T09:14:47;14.40;;;2.10;;
56381;SDS011;74506;51.150;4.470;2024-03-23T09:17:13;13.90;;;3.03;;
56381;SDS011;74506;51.150;4.470;2024-03-23T09:19:38;12.52;;;2.78;;
56381;SDS011;74506;51.150;4.470;2024-03-23T09:22:05;11.40;;;2.53;;
56381;SDS011;74506;51.150;4.470;2024-03-23T09:24:30;8.50;;;1.65;;
56381;SDS011;74506;51.150;4.470;2024-03-23T09:26:57;9.65;;;2.53;;
56381;SDS011;74506;51.150;4.470;2024-03-23T09:29:23;5.18;;;1.75;;
56381;SDS011;74506;51.150;4.470;2024-03-23T09:31:48;5.55;;;1.50;;
56381;SDS011;74506;51.150;4.470;2024-03-23T09:34:14;4.93;;;1.67;;
56381;SDS011;74506;51.150;4.470;2024-03-23T09:36:40;7.88;;;1.80;;
56381;SDS011;74506;51.150;4.470;2024-03-23T09:39:06;4.18;;;1.00;;
56381;SDS011;74506;51.150;4.470;2024-03-23T09:41:34;3.05;;;0.75;;
56381;SDS011;74506;51.150;4.470;2024-03-23T09:44:00;4.28;;;0.77;;
56381;SDS011;74506;51.150;4.470;2024-03-23T09:46:26;5.93;;;1.00;;
56381;SDS011;74506;51.150;4.470;2024-03-23T09:51:19;4.43;;;1.15;;
56381;SDS011;74506;51.150;4.470;2024-03-23T09:53:44;6.43;;;1.88;;
56381;SDS011;74506;51.150;4.470;2024-03-23T09:56:10;5.63;;;1.88;;
56381;SDS011;74506;51.150;4.470;2024-03-23T09:58:36;8.00;;;1.77;;
56381;SDS011;74506;51.150;4.470;2024-03-23T10:01:02;5.13;;;1.15;;
56381;SDS011;74506;51.150;4.470;2024-03-23T10:03:28;4.07;;;1.38;;
56381;SDS011;74506;51.150;4.470;2024-03-23T10:06:00;3.30;;;0.60;;
56381;SDS011;74506;51.150;4.470;2024-03-23T10:08:26;4.68;;;0.93;;
56381;SDS011;74506;51.150;4.470;2024-03-23T10:10:54;5.07;;;0.73;;
56381;SDS011;74506;51.150;4.470;2024-03-23T10:13:26;6.05;;;0.90;;
56381;SDS011;74506;51.150;4.470;2024-03-23T10:15:55;8.10;;;1.23;;
56381;SDS011;74506;51.150;4.470;2024-03-23T10:18:22;9.52;;;0.98;;
56381;SDS011;74506;51.150;4.470;2024-03-23T10:20:52;9.80;;;1.55;;
56381;SDS011;74506;51.150;4.470;2024-03-23T10:23:29;5.28;;;0.77;;
56381;SDS011;74506;51.150;4.470;2024-03-23T10:25:55;6.75;;;1.27;;
56381;SDS011;74506;51.150;4.470;2024-03-23T10:28:20;7.60;;;1.33;;
56381;SDS011;74506;51.150;4.470;2024-03-23T10:30:46;4.85;;;1.08;;
56381;SDS011;74506;51.150;4.470;2024-03-23T10:33:11;14.02;;;2.00;;
56381;SDS011;74506;51.150;4.470;2024-03-23T10:35:38;7.80;;;2.05;;
56381;SDS011;74506;51.150;4.470;2024-03-23T10:38:05;5.47;;;0.80;;
56381;SDS011;74506;51.150;4.470;2024-03-23T10:40:31;4.05;;;1.10;;
56381;SDS011;74506;51.150;4.470;2024-03-23T10:42:59;5.40;;;1.17;;
56381;SDS011;74506;51.150;4.470;2024-03-23T10:45:25;6.32;;;1.55;;
56381;SDS011;74506;51.150;4.470;2024-03-23T10:47:51;6.60;;;1.27;;
56381;SDS011;74506;51.150;4.470;2024-03-23T10:50:17;6.45;;;1.55;;
56381;SDS011;74506;51.150;4.470;2024-03-23T10:52:44;7.22;;;1.02;;
56381;SDS011;74506;51.150;4.470;2024-03-23T10:55:11;5.00;;;1.40;;
56381;SDS011;74506;51.150;4.470;2024-03-23T10:57:40;8.80;;;1.42;;
56381;SDS011;74506;51.150;4.470;2024-03-23T11:00:06;12.35;;;1.60;;
56381;SDS011;74506;51.150;4.470;2024-03-23T11:02:34;6.55;;;1.60;;
56381;SDS011;74506;51.150;4.470;2024-03-23T11:04:59;6.72;;;1.40;;
56381;SDS011;74506;51.150;4.470;2024-03-23T11:07:31;5.07;;;1.38;;
56381;SDS011;74506;51.150;4.470;2024-03-23T11:09:57;5.53;;;1.90;;
56381;SDS011;74506;51.150;4.470;2024-03-23T11:14:52;7.40;;;1.60;;
56381;SDS011;74506;51.150;4.470;2024-03-23T11:17:18;7.60;;;1.70;;
56381;SDS011;74506;51.150;4.470;2024-03-23T11:19:44;6.28;;;1.15;;
56381;SDS011;74506;51.150;4.470;2024-03-23T11:22:10;7.93;;;1.88;;
56381;SDS011;74506;51.150;4.470;2024-03-23T11:24:35;7.55;;;1.33;;
56381;SDS011;74506;51.150;4.470;2024-03-23T11:27:02;6.50;;;1.25;;
56381;SDS011;74506;51.150;4.470;2024-03-23T11:29:40;8.27;;;1.27;;
56381;SDS011;74506;51.150;4.470;2024-03-23T11:32:07;5.38;;;1.35;;
56381;SDS011;74506;51.150;4.470;2024-03-23T11:34:35;5.10;;;1.33;;
56381;SDS011;74506;51.150;4.470;2024-03-23T11:37:04;6.65;;;1.40;;
56381;SDS011;74506;51.150;4.470;2024-03-23T11:39:31;5.95;;;1.17;;
56381;SDS011;74506;51.150;4.470;2024-03-23T11:41:56;5.65;;;1.27;;
56381;SDS011;74506;51.150;4.470;2024-03-23T11:44:23;5.70;;;1.42;;
56381;SDS011;74506;51.150;4.470;2024-03-23T11:46:50;11.18;;;1.17;;
56381;SDS011;74506;51.150;4.470;2024-03-23T11:51:50;5.82;;;1.92;;
56381;SDS011;74506;51.150;4.470;2024-03-23T11:54:16;2.00;;;1.27;;
56381;SDS011;74506;51.150;4.470;2024-03-23T11:59:39;3.33;;;1.20;;
56381;SDS011;74506;51.150;4.470;2024-03-23T12:02:11;4.95;;;1.00;;
56381;SDS011;74506;51.150;4.470;2024-03-23T12:04:40;2.38;;;0.90;;
56381;SDS011;74506;51.150;4.470;2024-03-23T12:07:18;3.38;;;1.00;;
56381;SDS011;74506;51.150;4.470;2024-03-23T12:09:44;5.78;;;1.00;;
56381;SDS011;74506;51.150;4.470;2024-03-23T12:12:20;4.10;;;1.10;;
56381;SDS011;74506;51.150;4.470;2024-03-23T12:15:01;3.58;;;0.98;;
56381;SDS011;74506;51.150;4.470;2024-03-23T12:17:27;5.15;;;1.23;;
56381;SDS011;74506;51.150;4.470;2024-03-23T12:19:52;3.72;;;1.20;;
56381;SDS011;74506;51.150;4.470;2024-03-23T12:22:21;3.95;;;1.33;;
56381;SDS011;74506;51.150;4.470;2024-03-23T12:24:47;3.97;;;1.48;;
56381;SDS011;74506;51.150;4.470;2024-03-23T12:27:13;6.07;;;2.10;;
56381;SDS011;74506;51.150;4.470;2024-03-23T12:29:38;3.95;;;1.60;;
56381;SDS011;74506;51.150;4.470;2024-03-23T12:32:04;5.68;;;1.38;;
56381;SDS011;74506;51.150;4.470;2024-03-23T12:34:30;4.45;;;1.00;;
56381;SDS011;74506;51.150;4.470;2024-03-23T12:36:56;4.45;;;1.50;;
56381;SDS011;74506;51.150;4.470;2024-03-23T12:39:22;5.45;;;1.15;;
56381;SDS011;74506;51.150;4.470;2024-03-23T12:41:48;4.68;;;1.90;;
56381;SDS011;74506;51.150;4.470;2024-03-23T12:44:13;2.72;;;1.30;;
56381;SDS011;74506;51.150;4.470;2024-03-23T12:46:40;5.38;;;1.38;;
56381;SDS011;74506;51.150;4.470;2024-03-23T12:49:06;6.88;;;1.75;;
56381;SDS011;74506;51.150;4.470;2024-03-23T12:51:32;5.32;;;1.45;;
56381;SDS011;74506;51.150;4.470;2024-03-23T12:53:58;6.32;;;1.40;;
56381;SDS011;74506;51.150;4.470;2024-03-23T12:56:23;4.95;;;1.27;;
56381;SDS011;74506;51.150;4.470;2024-03-23T12:58:49;4.72;;;1.02;;
56381;SDS011;74506;51.150;4.470;2024-03-23T13:01:17;6.43;;;1.10;;
56381;SDS011;74506;51.150;4.470;2024-03-23T13:03:43;4.75;;;1.17;;
56381;SDS011;74506;51.150;4.470;2024-03-23T13:06:10;4.15;;;1.20;;
56381;SDS011;74506;51.150;4.470;2024-03-23T13:08:35;3.30;;;1.10;;
56381;SDS011;74506;51.150;4.470;2024-03-23T13:11:01;5.45;;;1.15;;
56381;SDS011;74506;51.150;4.470;2024-03-23T13:13:27;6.75;;;1.23;;
56381;SDS011;74506;51.150;4.470;2024-03-23T13:15:52;3.25;;;0.77;;
56381;SDS011;74506;51.150;4.470;2024-03-23T13:18:18;10.35;;;1.77;;
56381;SDS011;74506;51.150;4.470;2024-03-23T13:20:44;3.88;;;0.90;;
56381;SDS011;74506;51.150;4.470;2024-03-23T13:23:09;5.95;;;1.30;;
56381;SDS011;74506;51.150;4.470;2024-03-23T13:25:35;4.30;;;1.08;;
56381;SDS011;74506;51.150;4.470;2024-03-23T13:28:02;5.07;;;1.13;;
56381;SDS011;74506;51.150;4.470;2024-03-23T13:30:28;3.65;;;1.25;;
56381;SDS011;74506;51.150;4.470;2024-03-23T13:32:53;5.35;;;1.05;;
56381;SDS011;74506;51.150;4.470;2024-03-23T13:35:19;5.20;;;1.13;;
56381;SDS011;74506;51.150;4.470;2024-03-23T13:37:45;4.32;;;1.00;;
56381;SDS011;74506;51.150;4.470;2024-03-23T13:40:10;3.28;;;0.93;;
56381;SDS011;74506;51.150;4.470;2024-03-23T13:42:36;3.10;;;0.85;;
56381;SDS011;74506;51.150;4.470;2024-03-23T13:45:02;2.30;;;0.50;;
56381;SDS011;74506;51.150;4.470;2024-03-23T13:47:28;2.05;;;0.40;;
56381;SDS011;74506;51.150;4.470;2024-03-23T13:49:53;3.85;;;0.70;;
56381;SDS011;74506;51.150;4.470;2024-03-23T13:52:19;2.42;;;0.82;;
56381;SDS011;74506;51.150;4.470;2024-03-23T13:54:48;2.47;;;0.47;;
56381;SDS011;74506;51.150;4.470;2024-03-23T13:57:14;1.13;;;0.30;;
56381;SDS011;74506;51.150;4.470;2024-03-23T13:59:39;0.75;;;0.20;;
56381;SDS011;74506;51.150;4.470;2024-03-23T14:02:05;0.60;;;0.30;;
56381;SDS011;74506;51.150;4.470;2024-03-23T14:04:31;1.58;;;0.50;;
56381;SDS011;74506;51.150;4.470;2024-03-23T14:06:56;3.42;;;0.63;;
56381;SDS011;74506;51.150;4.470;2024-03-23T14:09:23;1.67;;;0.40;;
56381;SDS011;74506;51.150;4.470;2024-03-23T14:11:51;2.22;;;0.50;;
56381;SDS011;74506;51.150;4.470;2024-03-23T14:14:16;3.80;;;0.60;;
56381;SDS011;74506;51.150;4.470;2024-03-23T14:16:42;1.67;;;0.60;;
56381;SDS011;74506;51.150;4.470;2024-03-23T14:19:08;1.67;;;0.40;;
56381;SDS011;74506;51.150;4.470;2024-03-23T14:21:34;2.58;;;0.80;;
56381;SDS011;74506;51.150;4.470;2024-03-23T14:24:03;3.80;;;0.77;;
56381;SDS011;74506;51.150;4.470;2024-03-23T14:26:29;2.83;;;0.80;;
56381;SDS011;74506;51.150;4.470;2024-03-23T14:28:55;1.98;;;0.82;;
56381;SDS011;74506;51.150;4.470;2024-03-23T14:33:46;3.92;;;0.90;;
56381;SDS011;74506;51.150;4.470;2024-03-23T14:50:45;6.57;;;1.00;;
56381;SDS011;74506;51.150;4.470;2024-03-23T14:53:12;2.55;;;0.88;;
56381;SDS011;74506;51.150;4.470;2024-03-23T14:55:39;3.38;;;1.05;;
56381;SDS011;74506;51.150;4.470;2024-03-23T14:58:12;4.15;;;0.73;;
56381;SDS011;74506;51.150;4.470;2024-03-23T15:00:38;4.43;;;1.00;;
56381;SDS011;74506;51.150;4.470;2024-03-23T15:03:03;3.83;;;1.23;;
56381;SDS011;74506;51.150;4.470;2024-03-23T15:05:29;3.45;;;0.80;;
56381;SDS011;74506;51.150;4.470;2024-03-23T15:07:55;2.20;;;0.60;;
56381;SDS011;74506;51.150;4.470;2024-03-23T15:10:21;4.18;;;0.55;;
56381;SDS011;74506;51.150;4.470;2024-03-23T15:12:46;2.88;;;0.68;;
56381;SDS011;74506;51.150;4.470;2024-03-23T15:15:12;4.70;;;1.27;;
56381;SDS011;74506;51.150;4.470;2024-03-23T15:17:38;2.97;;;1.23;;
56381;SDS011;74506;51.150;4.470;2024-03-23T15:20:06;3.63;;;1.30;;
56381;SDS011;74506;51.150;4.470;2024-03-23T15:22:32;5.43;;;0.90;;
56381;SDS011;74506;51.150;4.470;2024-03-23T15:24:58;4.20;;;1.13;;
56381;SDS011;74506;51.150;4.470;2024-03-23T15:27:23;3.85;;;1.08;;
56381;SDS011;74506;51.150;4.470;2024-03-23T15:29:49;2.95;;;1.00;;
56381;SDS011;74506;51.150;4.470;2024-03-23T15:32:14;6.25;;;1.02;;
56381;SDS011;74506;51.150;4.470;2024-03-23T15:34:42;4.93;;;1.13;;
56381;SDS011;74506;51.150;4.470;2024-03-23T15:37:08;3.20;;;1.00;;
56381;SDS011;74506;51.150;4.470;2024-03-23T15:39:34;4.38;;;0.73;;
56381;SDS011;74506;51.150;4.470;2024-03-23T15:41:59;3.35;;;0.75;;
56381;SDS011;74506;51.150;4.470;2024-03-23T15:44:25;5.00;;;1.23;;
56381;SDS011;74506;51.150;4.470;2024-03-23T15:46:51;2.15;;;0.80;;
56381;SDS011;74506;51.150;4.470;2024-03-23T15:49:16;3.15;;;0.90;;
56381;SDS011;74506;51.150;4.470;2024-03-23T15:51:42;2.78;;;0.80;;
56381;SDS011;74506;51.150;4.470;2024-03-23T15:54:09;3.78;;;0.82;;
56381;SDS011;74506;51.150;4.470;2024-03-23T15:56:35;1.75;;;0.70;;
56381;SDS011;74506;51.150;4.470;2024-03-23T15:59:00;2.15;;;0.73;;